createdAt,value
2019-02-26T00:00:49.656Z,5.90
2019-02-26T00:03:19.426Z,5.80
2019-02-26T00:05:49.863Z,5.80
2019-02-26T00:08:19.475Z,5.90
2019-02-26T00:10:46.538Z,5.80
2019-02-26T00:13:14.810Z,5.80
2019-02-26T00:15:43.768Z,5.80
2019-02-26T00:18:13.937Z,5.70
2019-02-26T00:20:43.038Z,5.70
2019-02-26T00:23:11.388Z,5.70
2019-02-26T00:25:39.738Z,5.60
2019-02-26T00:28:08.080Z,5.60
2019-02-26T00:30:37.915Z,5.60
2019-02-26T00:33:06.398Z,5.50
2019-02-26T00:35:34.682Z,5.60
2019-02-26T00:38:03.040Z,5.50
2019-02-26T00:40:32.621Z,5.50
2019-02-26T00:43:02.557Z,5.40
2019-02-26T00:45:32.332Z,5.40
2019-02-26T00:48:01.389Z,5.30
2019-02-26T00:50:30.375Z,5.30
2019-02-26T00:53:01.603Z,5.30
2019-02-26T00:55:30.300Z,5.30
2019-02-26T00:58:01.069Z,5.30
2019-02-26T01:00:37.614Z,5.30
2019-02-26T01:03:10.943Z,5.30
2019-02-26T01:05:40.897Z,5.20
2019-02-26T01:08:12.658Z,5.20
2019-02-26T01:10:39.870Z,5.20
2019-02-26T01:13:09.243Z,5.20
2019-02-26T01:15:37.587Z,5.20
2019-02-26T01:18:06.139Z,5.30
2019-02-26T01:20:34.428Z,5.30
2019-02-26T01:23:02.779Z,5.20
2019-02-26T01:25:31.157Z,5.20
2019-02-26T01:28:00.472Z,5.20
2019-02-26T01:30:31.145Z,5.20
2019-02-26T01:33:00.579Z,5.20
2019-02-26T01:35:30.821Z,5.20
2019-02-26T01:38:00.514Z,5.10
2019-02-26T01:40:29.066Z,5.10
2019-02-26T01:42:57.956Z,5.10
2019-02-26T01:45:29.731Z,5.10
2019-02-26T01:47:57.376Z,5.10
2019-02-26T01:50:25.678Z,5.10
2019-02-26T01:52:54.477Z,5.00
2019-02-26T01:55:25.329Z,5.00
2019-02-26T01:57:54.035Z,5.10
2019-02-26T02:00:25.421Z,5.00
2019-02-26T02:02:52.394Z,5.00
2019-02-26T02:05:21.597Z,5.00
2019-02-26T02:07:51.839Z,5.00
2019-02-26T02:10:20.711Z,5.00
2019-02-26T02:12:49.085Z,5.00
2019-02-26T02:15:20.446Z,5.00
2019-02-26T02:17:47.415Z,4.90
2019-02-26T02:20:19.409Z,4.90
2019-02-26T02:22:46.150Z,4.80
2019-02-26T02:25:14.746Z,4.80
2019-02-26T02:27:43.073Z,4.80
2019-02-26T02:30:22.414Z,4.70
2019-02-26T02:32:50.470Z,4.80
2019-02-26T02:35:17.832Z,4.70
2019-02-26T02:37:44.963Z,4.70
2019-02-26T02:40:13.784Z,4.70
2019-02-26T02:42:43.168Z,4.70
2019-02-26T02:45:16.201Z,4.60
2019-02-26T02:47:42.915Z,4.60
2019-02-26T02:50:15.317Z,4.60
2019-02-26T02:52:43.386Z,4.60
2019-02-26T02:55:13.900Z,4.50
2019-02-26T02:57:41.790Z,4.50
2019-02-26T03:03:06.070Z,4.40
2019-02-26T03:05:37.295Z,4.40
2019-02-26T03:08:04.447Z,4.40
2019-02-26T03:10:34.609Z,4.40
2019-02-26T03:13:02.956Z,4.30
2019-02-26T03:15:35.219Z,4.30
2019-02-26T03:18:03.498Z,4.30
2019-02-26T03:20:35.616Z,4.30
2019-02-26T03:23:01.446Z,4.30
2019-02-26T03:25:29.780Z,4.30
2019-02-26T03:27:58.161Z,4.30
2019-02-26T03:30:32.852Z,4.30
2019-02-26T03:33:03.356Z,4.20
2019-02-26T03:35:26.516Z,4.20
2019-02-26T03:37:57.918Z,4.20
2019-02-26T03:40:27.214Z,4.20
2019-02-26T03:42:54.819Z,4.10
2019-02-26T03:45:24.696Z,4.10
2019-02-26T03:47:55.329Z,4.10
2019-02-26T03:50:26.349Z,4.10
2019-02-26T03:52:53.278Z,4.10
2019-02-26T03:55:21.640Z,4.10
2019-02-26T03:57:53.347Z,4.00
2019-02-26T04:00:20.521Z,4.00
2019-02-26T04:02:51.632Z,4.00
2019-02-26T04:05:19.070Z,4.00
2019-02-26T04:07:51.607Z,4.00
2019-02-26T04:10:17.544Z,4.00
2019-02-26T04:12:48.689Z,4.00
2019-02-26T04:15:16.909Z,3.90
2019-02-26T04:17:45.359Z,3.90
2019-02-26T04:20:14.559Z,4.00
2019-02-26T04:22:46.054Z,3.90
2019-02-26T04:25:16.158Z,3.90
2019-02-26T04:27:47.555Z,3.90
2019-02-26T04:30:19.168Z,3.90
2019-02-26T04:32:50.774Z,3.90
2019-02-26T04:35:21.134Z,3.90
2019-02-26T04:37:53.111Z,3.90
2019-02-26T04:40:28.373Z,3.90
2019-02-26T04:42:59.893Z,3.90
2019-02-26T04:45:32.545Z,3.90
2019-02-26T04:48:04.173Z,3.80
2019-02-26T04:50:35.697Z,3.80
2019-02-26T04:53:05.028Z,3.80
2019-02-26T04:55:35.517Z,3.80
2019-02-26T04:58:02.712Z,3.70
2019-02-26T05:00:35.322Z,3.70
2019-02-26T05:03:01.036Z,3.70
2019-02-26T05:05:31.978Z,3.60
2019-02-26T05:07:59.569Z,3.60
2019-02-26T05:10:29.907Z,3.60
2019-02-26T05:13:00.321Z,3.50
2019-02-26T05:15:32.476Z,3.50
2019-02-26T05:17:57.915Z,3.50
2019-02-26T05:20:26.276Z,3.40
2019-02-26T05:22:58.453Z,3.40
2019-02-26T05:25:25.588Z,3.40
2019-02-26T05:27:54.472Z,3.40
2019-02-26T05:30:22.896Z,3.40
2019-02-26T05:32:53.967Z,3.40
2019-02-26T05:35:23.376Z,3.40
2019-02-26T05:37:51.372Z,3.30
2019-02-26T05:40:22.083Z,3.30
2019-02-26T05:42:49.731Z,3.30
2019-02-26T05:45:18.128Z,3.30
2019-02-26T05:47:50.237Z,3.20
2019-02-26T05:50:16.849Z,3.20
2019-02-26T05:56:26.109Z,3.20
2019-02-26T05:58:54.507Z,3.10
2019-02-26T06:01:25.035Z,3.20
2019-02-26T06:03:52.984Z,3.10
2019-02-26T06:06:22.956Z,3.10
2019-02-26T06:08:51.475Z,3.10
2019-02-26T06:11:19.812Z,3.10
2019-02-26T06:16:55.887Z,3.00
2019-02-26T06:19:27.570Z,3.00
2019-02-26T06:21:56.648Z,3.00
2019-02-26T06:24:27.030Z,3.00
2019-02-26T06:26:55.271Z,3.00
2019-02-26T06:30:05.968Z,3.00
2019-02-26T06:32:32.850Z,3.00
2019-02-26T06:35:01.750Z,3.00
2019-02-26T06:37:31.341Z,3.00
2019-02-26T06:40:02.543Z,2.90
2019-02-26T06:42:31.557Z,2.90
2019-02-26T06:45:00.340Z,2.90
2019-02-26T06:47:30.972Z,2.90
2019-02-26T06:49:58.639Z,3.00
2019-02-26T06:52:26.915Z,3.00
2019-02-26T06:54:59.607Z,3.00
2019-02-26T06:57:25.611Z,3.00
2019-02-26T06:59:56.369Z,3.00
2019-02-26T07:02:28.276Z,3.00
2019-02-26T07:04:53.975Z,3.00
2019-02-26T07:07:22.352Z,3.10
2019-02-26T07:09:50.637Z,3.10
2019-02-26T07:12:20.017Z,3.10
2019-02-26T07:14:50.751Z,3.10
2019-02-26T07:27:13.826Z,3.20
2019-02-26T07:29:44.390Z,3.30
2019-02-26T07:32:12.326Z,3.30
2019-02-26T07:34:42.947Z,3.40
2019-02-26T07:37:13.465Z,3.50
2019-02-26T07:39:44.250Z,3.50
2019-02-26T07:42:14.673Z,3.70
2019-02-26T07:44:42.813Z,3.80
2019-02-26T07:47:14.473Z,3.90
2019-02-26T07:49:42.893Z,4.00
2019-02-26T07:52:11.264Z,4.10
2019-02-26T07:54:41.886Z,4.30
2019-02-26T07:57:15.631Z,4.40
2019-02-26T07:59:45.099Z,4.60
2019-02-26T08:02:38.359Z,4.70
2019-02-26T08:08:09.789Z,5.20
2019-02-26T08:10:40.103Z,5.40
2019-02-26T08:13:08.115Z,5.60
2019-02-26T08:15:37.550Z,5.70
2019-02-26T08:18:06.451Z,5.90
2019-02-26T08:20:35.648Z,6.10
2019-02-26T08:23:04.847Z,6.30
2019-02-26T08:25:33.148Z,6.40
2019-02-26T08:28:01.556Z,6.60
2019-02-26T08:30:29.924Z,6.80
2019-02-26T08:32:58.987Z,7.00
2019-02-26T08:35:28.318Z,7.20
2019-02-26T08:37:56.768Z,7.40
2019-02-26T08:40:25.192Z,7.50
2019-02-26T08:42:53.559Z,7.80
2019-02-26T08:49:08.062Z,8.20
2019-02-26T09:04:42.291Z,9.30
2019-02-26T09:07:10.241Z,9.60
2019-02-26T09:09:38.535Z,9.90
2019-02-26T09:12:06.838Z,10.10
2019-02-26T09:14:37.543Z,10.30
2019-02-26T09:17:05.107Z,10.50
2019-02-26T09:19:35.481Z,10.70
2019-02-26T09:22:03.443Z,10.90
2019-02-26T09:24:31.702Z,11.00
2019-02-26T09:27:02.308Z,11.20
2019-02-26T09:29:29.956Z,11.40
2019-02-26T09:31:58.218Z,11.60
2019-02-26T09:34:28.705Z,11.80
2019-02-26T09:36:58.159Z,11.90
2019-02-26T09:39:27.502Z,12.20
2019-02-26T09:41:57.567Z,12.40
2019-02-26T09:44:28.654Z,12.70
2019-02-26T09:46:58.345Z,13.00
2019-02-26T09:49:28.367Z,13.20
2019-02-26T09:51:56.810Z,13.50
2019-02-26T09:54:26.399Z,13.80
2019-02-26T09:56:54.630Z,14.10
2019-02-26T09:59:22.983Z,14.30
2019-02-26T10:01:51.235Z,14.50
2019-02-26T10:04:20.147Z,14.70
2019-02-26T10:06:49.552Z,14.80
2019-02-26T10:09:18.866Z,15.00
2019-02-26T10:11:49.309Z,15.20
2019-02-26T10:14:17.821Z,15.40
2019-02-26T10:16:47.098Z,15.60
2019-02-26T10:19:17.203Z,15.80
2019-02-26T10:21:46.170Z,16.00
2019-02-26T10:26:53.381Z,16.30
2019-02-26T10:29:21.691Z,16.50
2019-02-26T10:31:49.934Z,16.70
2019-02-26T10:34:20.395Z,16.80
2019-02-26T10:36:49.715Z,16.70
2019-02-26T10:39:20.566Z,16.80
2019-02-26T10:41:48.228Z,16.80
2019-02-26T10:44:16.471Z,16.90
2019-02-26T10:46:44.744Z,17.10
2019-02-26T10:49:12.992Z,17.30
2019-02-26T10:51:42.644Z,17.50
2019-02-26T10:54:13.747Z,17.70
2019-02-26T10:56:42.551Z,17.80
2019-02-26T10:59:13.107Z,17.90
2019-02-26T11:01:41.180Z,18.20
2019-02-26T11:04:09.457Z,18.40
2019-02-26T11:06:39.798Z,18.60
2019-02-26T11:09:09.891Z,18.60
2019-02-26T11:11:39.969Z,18.70
2019-02-26T11:14:10.444Z,18.90
2019-02-26T11:16:39.084Z,19.00
2019-02-26T11:19:10.373Z,19.20
2019-02-26T11:21:37.697Z,19.10
2019-02-26T11:24:06.601Z,19.10
2019-02-26T11:26:38.158Z,19.30
2019-02-26T11:29:06.051Z,19.40
2019-02-26T11:31:36.147Z,19.60
2019-02-26T11:34:09.236Z,19.70
2019-02-26T11:36:36.510Z,19.70
2019-02-26T11:39:06.835Z,19.80
2019-02-26T11:41:36.144Z,19.90
2019-02-26T11:44:07.551Z,20.10
2019-02-26T11:46:34.530Z,20.20
2019-02-26T11:49:03.834Z,20.20
2019-02-26T11:51:37.115Z,20.30
2019-02-26T11:54:04.695Z,20.30
2019-02-26T11:56:32.082Z,20.50
2019-02-26T11:59:00.414Z,20.60
2019-02-26T12:01:29.350Z,20.70
2019-02-26T12:04:03.210Z,20.80
2019-02-26T12:06:28.739Z,20.80
2019-02-26T12:08:57.057Z,20.90
2019-02-26T12:11:25.312Z,20.80
2019-02-26T12:13:53.571Z,20.70
2019-02-26T12:16:21.847Z,20.80
2019-02-26T12:18:50.144Z,20.90
2019-02-26T12:21:20.019Z,20.90
2019-02-26T12:23:48.276Z,20.90
2019-02-26T12:26:19.168Z,20.70
2019-02-26T12:28:46.536Z,20.70
2019-02-26T12:31:14.803Z,20.80
2019-02-26T12:33:57.438Z,20.80
2019-02-26T12:36:26.626Z,20.60
2019-02-26T12:38:56.491Z,20.50
2019-02-26T12:41:25.740Z,20.50
2019-02-26T12:43:53.995Z,20.50
2019-02-26T12:46:24.350Z,20.60
2019-02-26T12:48:52.220Z,20.70
2019-02-26T12:51:22.637Z,20.70
2019-02-26T12:53:50.721Z,20.80
2019-02-26T12:56:20.840Z,20.80
2019-02-26T12:58:52.030Z,20.80
2019-02-26T13:01:19.025Z,20.70
2019-02-26T13:03:54.021Z,20.70
2019-02-26T13:08:49.764Z,20.70
2019-02-26T13:11:18.288Z,20.60
2019-02-26T13:13:49.742Z,20.60
2019-02-26T13:16:17.369Z,20.40
2019-02-26T13:18:47.796Z,20.40
2019-02-26T13:21:17.229Z,20.30
2019-02-26T13:23:45.797Z,20.10
2019-02-26T13:26:18.169Z,19.80
2019-02-26T13:28:46.771Z,19.60
2019-02-26T13:31:18.198Z,19.20
2019-02-26T13:33:44.165Z,19.10
2019-02-26T13:36:12.609Z,18.80
2019-02-26T13:38:45.012Z,18.60
2019-02-26T13:41:28.727Z,18.40
2019-02-26T13:43:40.974Z,18.30
2019-02-26T13:46:09.257Z,18.30
2019-02-26T13:48:37.584Z,18.30
2019-02-26T13:51:05.916Z,18.30
2019-02-26T13:53:34.221Z,18.20
2019-02-26T13:56:04.863Z,18.20
2019-02-26T13:58:33.226Z,18.10
2019-02-26T14:01:03.865Z,18.10
2019-02-26T14:03:32.180Z,18.00
2019-02-26T14:06:12.389Z,18.00
2019-02-26T14:08:40.814Z,18.00
2019-02-26T14:11:11.159Z,17.90
2019-02-26T14:13:39.744Z,17.90
2019-02-26T14:16:08.389Z,17.90
2019-02-26T14:18:40.180Z,17.90
2019-02-26T14:27:15.419Z,17.90
2019-02-26T14:29:43.701Z,17.80
2019-02-26T14:32:11.983Z,17.80
2019-02-26T14:34:41.152Z,17.80
2019-02-26T14:37:11.063Z,17.80
2019-02-26T14:39:39.334Z,17.80
2019-02-26T14:42:07.688Z,17.80
2019-02-26T14:44:36.090Z,17.80
2019-02-26T14:47:06.274Z,17.80
2019-02-26T14:49:36.037Z,17.80
2019-02-26T14:52:04.397Z,17.80
2019-02-26T14:54:32.737Z,17.70
2019-02-26T14:57:01.001Z,17.70
2019-02-26T14:59:29.264Z,17.70
2019-02-26T15:01:57.547Z,17.70
2019-02-26T15:04:25.808Z,17.70
2019-02-26T15:06:55.811Z,17.70
2019-02-26T15:09:24.289Z,17.70
2019-02-26T15:11:52.546Z,17.70
2019-02-26T15:14:20.852Z,17.70
2019-02-26T15:16:49.194Z,17.70
2019-02-26T15:19:17.517Z,17.70
2019-02-26T15:21:45.760Z,17.70
2019-02-26T15:24:14.034Z,17.70
2019-02-26T15:26:42.400Z,17.60
2019-02-26T15:29:10.672Z,17.50
2019-02-26T15:31:39.646Z,17.50
2019-02-26T15:34:11.018Z,17.50
2019-02-26T15:36:39.386Z,17.50
2019-02-26T15:39:07.776Z,17.50
2019-02-26T15:41:36.118Z,17.50
2019-02-26T15:44:04.433Z,17.40
2019-02-26T15:46:32.814Z,17.40
2019-02-26T15:49:01.162Z,17.40
2019-02-26T15:51:29.465Z,17.40
2019-02-26T15:53:59.478Z,17.30
2019-02-26T15:56:29.775Z,17.30
2019-02-26T15:58:58.750Z,17.20
2019-02-26T16:01:28.271Z,17.20
2019-02-26T16:03:56.544Z,17.10
2019-02-26T16:06:24.957Z,17.00
2019-02-26T16:08:56.169Z,16.80
2019-02-26T16:11:24.495Z,16.70
2019-02-26T16:13:52.845Z,16.50
2019-02-26T16:16:32.875Z,16.30
2019-02-26T16:19:01.342Z,16.30
2019-02-26T16:21:30.523Z,16.20
2019-02-26T16:23:58.947Z,16.10
2019-02-26T16:29:27.182Z,15.80
2019-02-26T16:31:57.282Z,15.70
2019-02-26T16:34:25.813Z,15.80
2019-02-26T16:36:54.131Z,15.70
2019-02-26T16:39:24.679Z,15.60
2019-02-26T16:41:52.428Z,15.50
2019-02-26T16:44:22.520Z,15.40
2019-02-26T16:46:50.777Z,15.20
2019-02-26T16:49:19.112Z,15.20
2019-02-26T16:51:47.679Z,15.10
2019-02-26T16:54:15.997Z,15.00
2019-02-26T16:56:44.324Z,14.90
2019-02-26T16:59:12.603Z,14.80
2019-02-26T17:01:40.898Z,14.70
2019-02-26T17:04:09.174Z,14.70
2019-02-26T17:06:37.437Z,14.60
2019-02-26T17:09:06.485Z,14.60
2019-02-26T17:11:38.413Z,14.50
2019-02-26T17:14:06.771Z,14.50
2019-02-26T17:16:35.109Z,14.50
2019-02-26T17:19:06.287Z,14.50
2019-02-26T17:21:37.099Z,14.40
2019-02-26T17:24:29.652Z,14.30
2019-02-26T17:26:58.000Z,14.10
2019-02-26T17:29:26.650Z,14.10
2019-02-26T17:31:54.966Z,14.00
2019-02-26T17:34:23.642Z,13.90
2019-02-26T17:36:52.035Z,13.80
2019-02-26T17:39:23.667Z,13.80
2019-02-26T17:41:53.095Z,13.70
2019-02-26T17:44:21.380Z,13.60
2019-02-26T17:46:49.675Z,13.60
2019-02-26T17:49:18.098Z,13.50
2019-02-26T17:51:46.445Z,13.40
2019-02-26T17:54:15.001Z,13.30
2019-02-26T17:56:43.662Z,13.20
2019-02-26T17:59:12.127Z,13.20
2019-02-26T18:01:40.380Z,13.10
2019-02-26T18:04:08.668Z,13.00
2019-02-26T18:06:36.996Z,12.90
2019-02-26T18:09:05.590Z,12.80
2019-02-26T18:11:33.870Z,12.70
2019-02-26T18:14:02.202Z,12.70
2019-02-26T18:16:33.674Z,12.60
2019-02-26T18:19:00.479Z,12.50
2019-02-26T18:24:51.152Z,12.30
2019-02-26T18:48:55.904Z,11.50
2019-02-26T18:51:24.251Z,11.40
2019-02-26T18:53:52.582Z,11.30
2019-02-26T18:56:20.867Z,11.30
2019-02-26T18:58:49.702Z,11.20
2019-02-26T19:01:18.318Z,11.10
2019-02-26T19:03:46.577Z,11.00
2019-02-26T19:06:14.879Z,10.90
2019-02-26T19:08:43.118Z,10.80
2019-02-26T19:11:16.683Z,10.80
2019-02-26T19:13:42.997Z,10.70
2019-02-26T19:16:11.277Z,10.60
2019-02-26T19:18:39.543Z,10.60
2019-02-26T19:21:07.844Z,10.50
2019-02-26T19:23:36.092Z,10.50
2019-02-26T19:26:04.387Z,10.50
2019-02-26T19:28:32.731Z,10.50
2019-02-26T19:31:01.064Z,10.40
2019-02-26T19:33:29.371Z,10.30
2019-02-26T19:35:57.620Z,10.30
2019-02-26T19:38:27.702Z,10.10
2019-02-26T19:40:59.103Z,10.00
2019-02-26T19:43:28.823Z,10.00
2019-02-26T19:45:57.319Z,9.90
2019-02-26T19:48:25.572Z,9.90
2019-02-26T19:50:54.038Z,9.80
2019-02-26T19:53:22.286Z,9.80
2019-02-26T19:55:53.143Z,9.80
2019-02-26T19:58:20.605Z,9.70
2019-02-26T20:00:52.703Z,9.70
2019-02-26T20:03:18.876Z,9.60
2019-02-26T20:05:47.263Z,9.60
2019-02-26T20:08:15.537Z,9.60
2019-02-26T20:10:47.888Z,9.50
2019-02-26T20:13:13.800Z,9.50
2019-02-26T20:15:42.082Z,9.40
2019-02-26T20:18:20.081Z,9.40
2019-02-26T20:20:41.144Z,9.40
2019-02-26T20:23:09.647Z,9.40
2019-02-26T20:25:37.947Z,9.30
2019-02-26T20:28:06.240Z,9.30
2019-02-26T20:30:34.569Z,9.30
2019-02-26T20:33:10.330Z,9.20
2019-02-26T20:35:38.656Z,9.20
2019-02-26T20:41:08.764Z,9.20
2019-02-26T20:43:37.397Z,9.10
2019-02-26T21:20:42.697Z,8.40
2019-02-26T21:23:10.986Z,8.40
2019-02-26T21:25:43.816Z,8.40
2019-02-26T21:28:09.207Z,8.40
2019-02-26T21:30:37.579Z,8.50
2019-02-26T21:33:06.087Z,8.50
2019-02-26T21:35:34.379Z,8.60
2019-02-26T21:38:05.749Z,8.60
2019-02-26T21:40:32.629Z,8.70
2019-02-26T21:43:02.411Z,8.60
2019-02-26T21:45:30.845Z,8.70
2019-02-26T21:48:02.522Z,8.70
2019-02-26T21:50:29.101Z,8.70
2019-02-26T21:53:09.211Z,8.70
2019-02-26T21:55:44.496Z,8.80
2019-02-26T21:58:10.186Z,8.70
2019-02-26T22:00:40.281Z,8.60
2019-02-26T22:03:08.584Z,8.60
2019-02-26T22:05:37.921Z,8.50
2019-02-26T22:08:06.778Z,8.50
2019-02-26T22:10:35.031Z,8.50
2019-02-26T22:13:03.282Z,8.40
2019-02-26T22:15:31.515Z,8.40
2019-02-26T22:17:59.966Z,8.40
2019-02-26T22:20:36.330Z,8.30
2019-02-26T22:23:01.307Z,8.30
2019-02-26T22:25:29.573Z,8.30
2019-02-26T22:27:57.819Z,8.30
2019-02-26T22:30:26.091Z,8.30
2019-02-26T22:32:54.343Z,8.20
2019-02-26T22:35:25.582Z,8.20
2019-02-26T22:37:52.631Z,8.20
2019-02-26T22:40:22.733Z,8.20
2019-02-26T22:42:50.867Z,8.20
2019-02-26T22:45:19.110Z,8.10
2019-02-26T22:47:47.371Z,8.10
2019-02-26T22:50:16.857Z,8.10
2019-02-26T22:52:45.123Z,8.10
2019-02-26T22:55:16.568Z,8.10
2019-02-26T22:57:44.487Z,8.00
2019-02-26T23:00:16.030Z,8.00
2019-02-26T23:02:44.276Z,8.00
2019-02-26T23:05:12.602Z,8.00
2019-02-26T23:07:40.946Z,7.90
2019-02-26T23:10:09.262Z,7.90
2019-02-26T23:12:57.208Z,7.80
2019-02-26T23:15:25.523Z,7.80
2019-02-26T23:17:58.161Z,7.70
2019-02-26T23:20:23.801Z,7.70
2019-02-26T23:22:52.153Z,7.70
2019-02-26T23:25:20.422Z,7.60
2019-02-26T23:27:49.303Z,7.60
2019-02-26T23:30:18.355Z,7.60
2019-02-26T23:32:46.714Z,7.50
2019-02-26T23:35:15.301Z,7.50
2019-02-26T23:37:43.641Z,7.50
2019-02-26T23:40:13.159Z,7.40
2019-02-26T23:42:41.463Z,7.40
2019-02-26T23:45:11.362Z,7.30
2019-02-26T23:47:39.789Z,7.30
2019-02-26T23:50:09.434Z,7.30
2019-02-26T23:52:37.699Z,7.20
2019-02-26T23:55:08.127Z,7.20
2019-02-26T23:57:36.387Z,7.10
